Strona główna
METAR-TAF:

METAR-TAF

Lotnisko :

Danville, Kentucky, Stany Zjednoczone

Szerokość geograficzna: 37-34-40N, Długość geograficzna: 084-46-11W, wysokość: 312 m

Aktualna obserwacja pogody

Raport powstał 11 minut temu, godzina 14:55 UTC
Wiatr 4 kt od zachodnio-północny zachód
Temperatura 30°C
Wilgotność 66%
Ciśnienie 1019 hPa
Widzialność: 16.1 km
Rozproszone chmury na wysokości 2100 ft

METAR: KDVK 191455Z AUTO 29004KT 10SM SCT021 30/23 A3010 RMK AO2

czas: 11:06 (15:06 UTC)


TAF: brakujący

Obserwacja i prognoza pogody dla ponad 4000 lotnisk (raport METAR i TAF).

Dostępne stacje oznaczono żółtymi i czerwonymi punktami na mapie.

Najedź kursorem aby zobaczyć nazwę stacji.

Kliknij aby zobaczyć obserwacje i prognozy pogody.

Aby zmienić mapę: kliknij na zielony przycisk z czarnym krzyżykiem, aby powiększyć; na zielony przycisk z myślnikiem, aby pomniejszyć; na zielone strzałki, aby przejść do map sąsiednich.


METAR-TAF: